Nashville, Tennessee
Traffic Map
Current Weather Conditions
Nashville, Tennessee
Few Clouds
Few Clouds
25°
Feels Like: 26°
Wind Chill: 25° Ceiling: Unl
Heat Index: 26° Visibility: 10mi
Dew Point: 17° Wind: 10mph
Humidity: 62% Direction: 190° (S)
Pressure: 29.97in Gusts: 0mph
Raw Report DataKBNA 011653Z 19009KT 10SM FEW029 25/17 A2997 RMK AO2 SLP142 T02500172
Traffic Incident Summary
Active as of:
Severity:
Category:
InformationThere was an issue retrieving the traffic information for this location. Please try a different location or try again shortly.
Advertisements
Track Severe Weather on mobile